Time;durP1;ratioP1;P1;durP2;ratioP2;P2;SDS_P1;SDS_P2;PMS_P1;PMS_P2;Temp;Humidity;BMP_temperature;BMP_pressure;BME280_temperature;BME280_humidity;BME280_pressure;Samples;Min_cycle;Max_cycle;Signal;HPM_P1;HPM_P2
2023/04/13 00:01:00;;;;;;;21.23;13.82;;;15.90;43.10;;;;;;5020079;28;20028;-84
2023/04/13 00:03:29;;;;;;;19.52;13.48;;;15.80;43.10;;;;;;5037140;28;20117;-84
2023/04/13 00:05:55;;;;;;;19.75;13.65;;;15.80;43.20;;;;;;5051714;28;20423;-86
2023/04/13 00:08:21;;;;;;;25.45;13.45;;;15.80;43.30;;;;;;5038748;28;20173;-83
2023/04/13 00:10:49;;;;;;;18.02;13.45;;;15.80;43.30;;;;;;5055159;28;20119;-85
2023/04/13 00:13:16;;;;;;;16.63;12.80;;;15.80;43.40;;;;;;5056470;28;20079;-86
2023/04/13 00:15:42;;;;;;;20.65;13.52;;;15.70;43.40;;;;;;5057767;28;20020;-89
2023/04/13 00:18:09;;;;;;;18.75;13.32;;;15.70;43.60;;;;;;5046506;28;20035;-86
2023/04/13 00:20:36;;;;;;;19.20;12.88;;;15.70;43.50;;;;;;5060429;28;20036;-87
2023/04/13 00:23:02;;;;;;;23.30;13.77;;;15.60;43.50;;;;;;5057795;28;20170;-86
2023/04/13 00:25:29;;;;;;;19.42;13.70;;;15.60;43.60;;;;;;5060229;28;20039;-87
2023/04/13 00:27:55;;;;;;;20.95;13.75;;;15.60;43.50;;;;;;5057262;28;20530;-86
2023/04/13 00:30:21;;;;;;;18.52;13.25;;;15.50;43.50;;;;;;5059340;28;20024;-88
2023/04/13 00:32:47;;;;;;;19.98;12.93;;;15.50;43.60;;;;;;5061981;28;20041;-87
2023/04/13 00:35:23;;;;;;;19.45;12.68;;;15.60;43.60;;;;;;5058114;28;20632;-85
2023/04/13 00:37:50;;;;;;;19.70;14.10;;;15.50;43.60;;;;;;5056184;28;20060;-83
2023/04/13 00:40:17;;;;;;;18.25;12.60;;;15.50;43.60;;;;;;5037930;28;20064;-83
2023/04/13 00:42:47;;;;;;;18.38;13.15;;;15.40;43.70;;;;;;5058623;28;20122;-84
2023/04/13 00:45:14;;;;;;;19.30;13.15;;;15.40;43.90;;;;;;5040655;28;20048;-84
2023/04/13 00:47:42;;;;;;;16.90;12.93;;;15.40;43.90;;;;;;5060629;28;20035;-84
2023/04/13 00:50:08;;;;;;;16.38;12.65;;;15.40;43.90;;;;;;5047436;28;20490;-84
2023/04/13 00:52:38;;;;;;;21.15;12.80;;;15.30;43.90;;;;;;5045942;28;20036;-83
2023/04/13 00:55:05;;;;;;;18.10;12.93;;;15.30;43.90;;;;;;5063630;28;20532;-83
2023/04/13 00:57:33;;;;;;;19.00;13.25;;;15.30;44.00;;;;;;5069318;28;20024;-83
2023/04/13 01:00:00;;;;;;;16.98;12.50;;;15.20;44.00;;;;;;5037663;28;20032;-80
2023/04/13 01:02:26;;;;;;;20.30;13.68;;;15.20;44.10;;;;;;5095391;28;20051;-81
2023/04/13 01:04:53;;;;;;;16.73;11.95;;;15.20;44.30;;;;;;5077805;28;20528;-82
2023/04/13 01:07:40;;;;;;;19.80;12.52;;;15.20;44.60;;;;;;5062154;28;20122;-82
2023/04/13 01:10:10;;;;;;;19.23;12.95;;;15.20;44.50;;;;;;5076073;28;20506;-82
2023/04/13 01:12:49;;;;;;;20.65;12.60;;;15.20;44.60;;;;;;5059895;28;20082;-82
2023/04/13 01:15:17;;;;;;;18.88;12.90;;;15.10;44.40;;;;;;5059789;28;20097;-83
2023/04/13 01:17:55;;;;;;;18.20;12.45;;;15.10;44.30;;;;;;5079323;28;20039;-81
2023/04/13 01:20:27;;;;;;;17.08;12.77;;;15.10;44.30;;;;;;5078603;28;20146;-80
2023/04/13 01:22:59;;;;;;;19.70;12.60;;;15.10;44.30;;;;;;5049066;28;20459;-81
2023/04/13 01:25:44;;;;;;;19.13;12.52;;;15.10;44.40;;;;;;5078321;28;20387;-80
2023/04/13 01:28:20;;;;;;;22.67;13.88;;;15.10;44.40;;;;;;5060505;28;20036;-83
2023/04/13 01:30:48;;;;;;;18.88;13.05;;;15.00;44.40;;;;;;5066165;28;20037;-82
2023/04/13 01:33:15;;;;;;;17.88;13.18;;;15.00;44.50;;;;;;5046167;28;20032;-83
2023/04/13 01:35:42;;;;;;;17.25;12.55;;;15.00;44.40;;;;;;5062039;28;20517;-82
2023/04/13 01:38:13;;;;;;;17.52;13.32;;;15.00;44.60;;;;;;5078193;28;20511;-82
2023/04/13 01:40:43;;;;;;;19.92;13.40;;;14.90;44.60;;;;;;5063644;28;20032;-85
2023/04/13 01:43:10;;;;;;;19.67;13.50;;;14.90;44.80;;;;;;5062124;28;20124;-80
2023/04/13 01:46:12;;;;;;;17.17;12.80;;;14.90;44.90;;;;;;5070227;28;20519;-80
2023/04/13 01:48:59;;;;;;;18.02;13.05;;;14.80;44.90;;;;;;5077928;28;20124;-80
2023/04/13 01:51:44;;;;;;;18.70;12.80;;;14.80;45.10;;;;;;5077676;28;20043;-80
2023/04/13 01:54:19;;;;;;;19.88;14.10;;;14.80;45.20;;;;;;5047161;28;20517;-79
2023/04/13 01:56:47;;;;;;;21.77;14.10;;;14.70;45.20;;;;;;5065629;28;20091;-80
2023/04/13 01:59:15;;;;;;;21.30;13.57;;;14.80;45.40;;;;;;5062271;28;20092;-81
2023/04/13 02:01:42;;;;;;;18.45;13.35;;;14.70;45.40;;;;;;5060309;28;20023;-81
2023/04/13 02:04:09;;;;;;;20.40;13.20;;;14.70;45.50;;;;;;5081974;28;20055;-81
2023/04/13 02:06:36;;;;;;;17.30;13.68;;;14.60;45.50;;;;;;5062907;28;20080;-79
2023/04/13 02:09:07;;;;;;;17.85;13.15;;;14.60;45.70;;;;;;5061575;28;20024;-81
2023/04/13 02:11:35;;;;;;;19.60;13.05;;;14.60;45.70;;;;;;5071308;28;20114;-81
2023/04/13 02:14:03;;;;;;;18.63;12.98;;;14.60;45.80;;;;;;5057618;28;20615;-79
2023/04/13 02:16:30;;;;;;;22.08;13.15;;;14.60;45.80;;;;;;5094431;28;20042;-81
2023/04/13 02:18:57;;;;;;;18.23;12.40;;;14.50;45.80;;;;;;5095532;28;20039;-81
2023/04/13 02:21:24;;;;;;;20.92;12.93;;;14.50;45.80;;;;;;5061324;28;20290;-80
2023/04/13 02:23:53;;;;;;;17.20;12.45;;;14.50;46.00;;;;;;5077378;28;20151;-80
2023/04/13 02:26:21;;;;;;;16.88;12.35;;;14.40;46.00;;;;;;5095483;28;20051;-82
2023/04/13 02:28:50;;;;;;;17.50;12.15;;;14.40;46.10;;;;;;5095903;28;20043;-81
2023/04/13 02:31:18;;;;;;;18.67;12.23;;;14.40;46.10;;;;;;5060775;28;20046;-82
2023/04/13 02:33:45;;;;;;;18.33;12.45;;;14.40;46.20;;;;;;5079926;28;20036;-80
2023/04/13 02:36:12;;;;;;;18.42;13.13;;;14.40;46.30;;;;;;5061023;28;20024;-81
2023/04/13 02:38:46;;;;;;;15.80;12.38;;;14.30;46.30;;;;;;5062216;28;20032;-82
2023/04/13 02:41:21;;;;;;;20.45;13.40;;;14.30;46.30;;;;;;5077417;28;20036;-82
2023/04/13 02:43:49;;;;;;;18.90;13.10;;;14.30;46.40;;;;;;5076330;28;20031;-84
2023/04/13 02:46:16;;;;;;;20.33;12.65;;;14.30;46.40;;;;;;5075518;28;20158;-83
2023/04/13 02:48:43;;;;;;;17.17;11.40;;;14.20;46.30;;;;;;5051713;28;20066;-83
2023/04/13 02:51:09;;;;;;;15.13;11.85;;;14.20;46.30;;;;;;5060344;28;20035;-83
2023/04/13 02:53:39;;;;;;;17.17;11.90;;;14.30;46.40;;;;;;5059625;28;20059;-83
2023/04/13 02:56:08;;;;;;;16.10;11.27;;;14.20;46.40;;;;;;5076979;28;20032;-84
2023/04/13 02:58:34;;;;;;;19.42;12.60;;;14.20;46.30;;;;;;5059718;28;20047;-88
2023/04/13 03:01:05;;;;;;;19.50;12.18;;;14.20;46.20;;;;;;5061688;28;20070;-84
2023/04/13 03:03:32;;;;;;;17.30;12.63;;;14.20;46.10;;;;;;5048229;28;20478;-84
2023/04/13 03:06:00;;;;;;;18.35;11.35;;;14.20;46.10;;;;;;5043032;28;20222;-83
2023/04/13 03:08:36;;;;;;;15.43;11.55;;;14.10;46.10;;;;;;5074015;28;20899;-83
2023/04/13 03:11:08;;;;;;;14.48;11.80;;;14.10;46.20;;;;;;5077191;28;20042;-84
2023/04/13 03:13:37;;;;;;;15.68;11.40;;;14.10;46.20;;;;;;5060051;28;20040;-83
2023/04/13 03:16:03;;;;;;;16.08;11.80;;;14.10;46.30;;;;;;5076808;28;20072;-81
2023/04/13 03:18:31;;;;;;;16.98;12.20;;;14.00;46.30;;;;;;5061171;28;20088;-84
2023/04/13 03:20:57;;;;;;;15.25;11.77;;;14.00;46.30;;;;;;5062386;28;20043;-84
2023/04/13 03:23:31;;;;;;;17.13;12.43;;;14.00;47.00;;;;;;5060067;28;20028;-84
2023/04/13 03:25:57;;;;;;;17.00;11.88;;;14.00;46.40;;;;;;5077894;28;20426;-81
2023/04/13 03:28:23;;;;;;;16.98;12.35;;;14.00;47.00;;;;;;5065810;28;20035;-82
2023/04/13 03:30:50;;;;;;;17.90;11.38;;;14.00;46.50;;;;;;5076597;28;20040;-83
2023/04/13 03:33:16;;;;;;;15.25;11.93;;;14.00;46.50;;;;;;5077520;28;20063;-81
2023/04/13 03:35:42;;;;;;;16.77;12.30;;;14.00;47.20;;;;;;5060456;28;20506;-80
2023/04/13 03:38:17;;;;;;;17.67;11.97;;;14.00;46.60;;;;;;5074323;28;20089;-81
2023/04/13 03:40:46;;;;;;;16.63;12.40;;;14.00;46.60;;;;;;5058811;28;20047;-81
2023/04/13 03:43:12;;;;;;;15.43;12.23;;;14.00;46.70;;;;;;5078161;28;20029;-81
2023/04/13 03:45:43;;;;;;;18.70;11.93;;;14.00;46.70;;;;;;5062043;28;20036;-81
2023/04/13 03:48:13;;;;;;;18.88;12.23;;;14.00;46.70;;;;;;5079322;28;20087;-81
2023/04/13 03:50:39;;;;;;;16.50;12.20;;;14.00;46.70;;;;;;5078881;28;20462;-82
2023/04/13 03:53:07;;;;;;;16.52;12.40;;;14.00;46.70;;;;;;5076946;28;20047;-81
2023/04/13 03:55:34;;;;;;;17.40;12.52;;;14.00;46.70;;;;;;5074055;28;20530;-77
2023/04/13 03:58:06;;;;;;;17.33;12.52;;;14.00;46.80;;;;;;5071605;28;20117;-77
2023/04/13 04:00:32;;;;;;;17.08;12.02;;;14.00;47.00;;;;;;5075623;28;20036;-77
2023/04/13 04:03:16;;;;;;;17.35;13.13;;;14.00;47.00;;;;;;5070222;28;20522;-76
2023/04/13 04:05:55;;;;;;;18.05;11.60;;;14.00;47.00;;;;;;5068940;28;20040;-77
2023/04/13 04:08:21;;;;;;;21.08;12.18;;;14.00;47.10;;;;;;5071774;28;20036;-76
2023/04/13 04:10:49;;;;;;;16.70;12.18;;;14.00;47.10;;;;;;5074478;28;20035;-77
2023/04/13 04:13:16;;;;;;;18.52;12.50;;;14.00;47.10;;;;;;5059342;28;20037;-77
2023/04/13 04:15:46;;;;;;;19.48;12.10;;;14.10;47.20;;;;;;5062072;28;20032;-76
2023/04/13 04:18:13;;;;;;;15.85;11.40;;;14.00;47.10;;;;;;5078677;28;20111;-77
2023/04/13 04:20:39;;;;;;;19.23;12.32;;;14.00;47.10;;;;;;5046952;28;20027;-77
2023/04/13 04:23:08;;;;;;;16.20;11.65;;;14.10;47.10;;;;;;5054799;28;20090;-80
2023/04/13 04:25:44;;;;;;;15.63;11.40;;;14.10;46.90;;;;;;5073768;28;20031;-80
2023/04/13 04:28:16;;;;;;;15.35;12.00;;;14.10;46.90;;;;;;5062476;28;20040;-84
2023/04/13 04:30:52;;;;;;;17.80;12.35;;;14.10;47.00;;;;;;5064579;28;20114;-82
2023/04/13 04:33:22;;;;;;;19.25;12.90;;;14.10;47.00;;;;;;5062238;28;20094;-81
2023/04/13 04:35:50;;;;;;;18.35;12.02;;;14.20;47.10;;;;;;5097759;28;20039;-85
2023/04/13 04:38:21;;;;;;;17.42;12.30;;;14.20;47.10;;;;;;5083442;28;20097;-89
2023/04/13 04:40:49;;;;;;;17.10;11.75;;;14.20;47.00;;;;;;5047236;28;20418;-79
2023/04/13 04:43:15;;;;;;;17.08;12.52;;;14.30;46.90;;;;;;5042489;28;20032;-81
2023/04/13 04:45:50;;;;;;;16.38;12.32;;;14.30;46.80;;;;;;5079621;28;20039;-76
2023/04/13 04:48:18;;;;;;;17.45;12.02;;;14.30;46.70;;;;;;5075694;28;20056;-82
2023/04/13 04:50:45;;;;;;;20.65;12.52;;;14.40;46.60;;;;;;5062475;28;20039;-78
2023/04/13 04:53:16;;;;;;;16.98;13.05;;;14.40;46.50;;;;;;5077034;28;20054;-76
2023/04/13 04:55:42;;;;;;;16.63;12.10;;;14.40;46.40;;;;;;5096822;28;20039;-75
2023/04/13 04:58:14;;;;;;;13.20;11.73;;;14.50;46.40;;;;;;5082216;28;20206;-77
2023/04/13 05:00:46;;;;;;;13.43;11.27;;;14.50;46.30;;;;;;5064169;28;20031;-79
2023/04/13 05:03:14;;;;;;;17.92;11.88;;;14.50;46.20;;;;;;5069199;28;20071;-77
2023/04/13 05:05:45;;;;;;;16.05;11.77;;;14.60;46.30;;;;;;5074250;28;20411;-79
2023/04/13 05:08:17;;;;;;;18.27;12.15;;;14.60;46.30;;;;;;5069924;28;20133;-75
2023/04/13 05:10:47;;;;;;;16.73;11.27;;;14.60;46.10;;;;;;5079778;28;20063;-79
2023/04/13 05:13:13;;;;;;;16.70;11.30;;;14.70;46.60;;;;;;5078772;28;20746;-81
2023/04/13 05:15:43;;;;;;;15.18;11.45;;;14.70;46.20;;;;;;5080444;28;20028;-79
2023/04/13 05:18:11;;;;;;;13.20;10.88;;;14.70;45.90;;;;;;5103260;28;20059;-78
2023/04/13 05:20:38;;;;;;;16.42;11.27;;;14.70;45.60;;;;;;5076652;28;20122;-79
2023/04/13 05:23:07;;;;;;;16.98;10.85;;;14.80;45.60;;;;;;5084633;28;20040;-79
2023/04/13 05:25:39;;;;;;;15.35;11.30;;;14.80;45.60;;;;;;5043838;28;20031;-78
2023/04/13 05:28:12;;;;;;;19.55;11.05;;;14.80;45.50;;;;;;5071895;28;20054;-79
2023/04/13 05:30:38;;;;;;;15.50;11.30;;;14.90;45.40;;;;;;5074451;28;20506;-80
2023/04/13 05:33:06;;;;;;;14.35;10.95;;;15.00;45.30;;;;;;5054903;28;20043;-79
2023/04/13 05:35:36;;;;;;;15.90;10.80;;;15.00;45.80;;;;;;5073809;28;20464;-80
2023/04/13 05:38:04;;;;;;;13.50;10.43;;;15.10;45.10;;;;;;5086798;28;20054;-83
2023/04/13 05:40:34;;;;;;;15.00;10.63;;;15.10;45.00;;;;;;5092393;28;20444;-79
2023/04/13 05:43:01;;;;;;;16.13;11.00;;;15.20;44.90;;;;;;5071587;28;20130;-83
2023/04/13 05:45:32;;;;;;;14.32;10.20;;;15.30;44.90;;;;;;5095475;28;20474;-83
2023/04/13 05:48:12;;;;;;;15.95;11.05;;;15.30;44.70;;;;;;5074042;28;20456;-81
2023/04/13 05:50:38;;;;;;;13.10;10.07;;;15.40;44.80;;;;;;5081812;28;21505;-81
2023/04/13 05:53:05;;;;;;;14.90;10.35;;;15.40;44.70;;;;;;5079437;28;20047;-80
2023/04/13 05:55:42;;;;;;;17.20;11.10;;;15.50;44.70;;;;;;5045346;28;20040;-78
2023/04/13 05:58:09;;;;;;;16.00;10.38;;;15.50;44.60;;;;;;5061004;28;20036;-81
2023/04/13 06:00:37;;;;;;;12.93;9.68;;;15.70;44.50;;;;;;5072273;28;20036;-81
2023/04/13 06:03:07;;;;;;;12.85;9.75;;;15.70;44.40;;;;;;5058526;28;20032;-81
2023/04/13 06:05:35;;;;;;;13.07;9.90;;;15.80;44.40;;;;;;5102699;28;20236;-83
2023/04/13 06:08:01;;;;;;;16.42;10.45;;;15.90;45.00;;;;;;5050034;28;20510;-81
2023/04/13 06:10:27;;;;;;;13.48;9.55;;;15.90;44.20;;;;;;5087804;28;20048;-81
2023/04/13 06:12:54;;;;;;;10.57;9.18;;;16.00;44.20;;;;;;5111129;28;20035;-81
2023/04/13 06:15:20;;;;;;;15.05;9.85;;;16.10;44.20;;;;;;5107544;28;20028;-82
2023/04/13 06:17:49;;;;;;;13.57;9.50;;;16.20;43.90;;;;;;5050394;28;20455;-80
2023/04/13 06:20:15;;;;;;;11.13;9.65;;;16.30;43.80;;;;;;5076821;28;20044;-81
2023/04/13 06:22:42;;;;;;;13.77;9.75;;;16.40;43.80;;;;;;5085600;28;20033;-82
2023/04/13 06:25:09;;;;;;;12.25;9.02;;;16.50;43.70;;;;;;5040795;28;20028;-81
2023/04/13 06:27:37;;;;;;;13.82;10.15;;;16.50;43.50;;;;;;5085119;28;20096;-81
2023/04/13 06:30:08;;;;;;;13.30;10.27;;;16.60;43.30;;;;;;5075722;28;20043;-82
2023/04/13 06:32:35;;;;;;;14.52;9.85;;;16.70;43.10;;;;;;5069651;28;20044;-80
2023/04/13 06:35:04;;;;;;;12.73;9.15;;;16.70;43.10;;;;;;5056781;28;20032;-83
2023/04/13 06:37:35;;;;;;;12.70;9.95;;;16.80;42.90;;;;;;5066037;28;20560;-81
2023/04/13 06:40:13;;;;;;;18.23;10.13;;;16.90;42.70;;;;;;5073053;28;20430;-78
2023/04/13 06:42:47;;;;;;;14.27;10.13;;;16.90;42.60;;;;;;5052090;28;20036;-82
2023/04/13 06:45:39;;;;;;;14.50;10.20;;;17.00;42.60;;;;;;5075934;28;20073;-80
2023/04/13 06:48:10;;;;;;;12.35;9.70;;;17.00;42.50;;;;;;5020738;28;20052;-82
2023/04/13 06:50:37;;;;;;;12.50;9.35;;;17.10;42.30;;;;;;5016782;28;20037;-81
2023/04/13 06:53:05;;;;;;;11.98;9.40;;;17.10;42.40;;;;;;5041829;28;20698;-81
2023/04/13 06:55:31;;;;;;;15.40;9.55;;;17.20;42.30;;;;;;5033836;28;20123;-80
2023/04/13 06:57:58;;;;;;;12.30;9.15;;;17.20;42.30;;;;;;5053314;28;20049;-81
2023/04/13 07:00:24;;;;;;;10.93;9.40;;;17.30;42.10;;;;;;5021767;28;20402;-81
2023/04/13 07:02:50;;;;;;;12.52;9.27;;;17.40;42.10;;;;;;5020918;28;20534;-85
2023/04/13 07:05:19;;;;;;;13.50;9.45;;;17.40;42.10;;;;;;5053489;28;20051;-82
2023/04/13 07:07:50;;;;;;;12.25;9.32;;;17.50;42.00;;;;;;5055953;28;20036;-83
2023/04/13 07:10:16;;;;;;;11.82;9.90;;;17.60;42.00;;;;;;5053978;28;20044;-83
2023/04/13 07:12:42;;;;;;;11.45;8.98;;;17.70;42.00;;;;;;5053815;28;20056;-81
2023/04/13 07:15:09;;;;;;;10.77;9.48;;;17.80;41.90;;;;;;5030529;28;20412;-81
2023/04/13 07:17:35;;;;;;;10.88;8.57;;;17.90;41.70;;;;;;5036655;28;20028;-81
2023/04/13 07:20:06;;;;;;;9.68;8.07;;;18.00;41.60;;;;;;5054068;28;20434;-83
2023/04/13 07:22:32;;;;;;;12.23;8.52;;;18.10;41.80;;;;;;5020543;28;20080;-80
2023/04/13 07:24:58;;;;;;;9.40;8.40;;;18.20;41.70;;;;;;5053363;28;20032;-82
2023/04/13 07:27:24;;;;;;;10.38;8.80;;;18.40;41.50;;;;;;5036992;28;20031;-82
2023/04/13 07:29:51;;;;;;;10.10;9.05;;;18.40;41.10;;;;;;5036906;28;20060;-82
2023/04/13 07:32:21;;;;;;;11.85;9.20;;;18.50;41.00;;;;;;5020118;28;20068;-81
2023/04/13 07:34:47;;;;;;;14.23;9.15;;;18.60;40.80;;;;;;5028681;28;20123;-81
2023/04/13 07:37:14;;;;;;;15.10;8.48;;;18.60;40.80;;;;;;5020054;28;20036;-83
2023/04/13 07:39:42;;;;;;;13.90;7.93;;;18.60;40.40;;;;;;5020751;28;20033;-83
2023/04/13 07:42:09;;;;;;;14.48;8.43;;;18.60;41.00;;;;;;5053711;28;20037;-79
2023/04/13 07:44:43;;;;;;;10.40;8.18;;;18.60;40.70;;;;;;5052763;28;20522;-79
2023/04/13 07:47:11;;;;;;;11.73;8.23;;;18.60;40.40;;;;;;5052292;28;20044;-79
2023/04/13 07:49:38;;;;;;;10.98;7.50;;;18.60;40.00;;;;;;5063271;28;20105;-78
2023/04/13 07:52:09;;;;;;;14.00;7.32;;;18.60;39.70;;;;;;5074612;28;20040;-81
2023/04/13 07:54:38;;;;;;;12.35;7.28;;;18.60;40.00;;;;;;5073928;28;20036;-81
2023/04/13 07:57:07;;;;;;;12.63;7.38;;;18.70;40.10;;;;;;5040057;28;20036;-78
2023/04/13 07:59:36;;;;;;;9.32;6.35;;;18.60;39.50;;;;;;5073388;28;20068;-78
2023/04/13 08:02:03;;;;;;;13.00;6.35;;;18.70;39.00;;;;;;5073111;28;20032;-77
2023/04/13 08:04:32;;;;;;;11.43;5.85;;;18.60;38.70;;;;;;5068507;28;20791;-77
2023/04/13 08:07:03;;;;;;;10.95;5.78;;;18.60;38.50;;;;;;5072584;28;20461;-78
2023/04/13 08:09:39;;;;;;;11.85;5.82;;;18.60;38.50;;;;;;5074669;28;20043;-77
2023/04/13 08:12:05;;;;;;;;;;;18.60;38.50;;;;;;5075801;28;20036;-77
2023/04/13 08:14:32;;;;;;;7.30;5.55;;;18.60;38.60;;;;;;5066486;28;19927;-77
2023/04/13 08:16:58;;;;;;;9.20;5.78;;;18.60;38.60;;;;;;5058525;28;20055;-76
2023/04/13 08:19:24;;;;;;;10.65;5.68;;;18.60;40.60;;;;;;5079311;28;20072;-76
2023/04/13 08:21:55;;;;;;;7.55;6.38;;;18.70;42.60;;;;;;5058199;28;20442;-76
2023/04/13 08:24:21;;;;;;;7.82;6.25;;;18.80;43.50;;;;;;5074771;28;20032;-77
2023/04/13 08:26:47;;;;;;;8.80;5.88;;;18.80;44.50;;;;;;5071608;28;20040;-76
2023/04/13 08:29:13;;;;;;;5.90;5.30;;;18.90;44.70;;;;;;5074330;28;20033;-77
2023/04/13 08:31:39;;;;;;;7.20;5.72;;;18.90;45.10;;;;;;5075033;28;20036;-76
2023/04/13 08:34:09;;;;;;;8.40;5.75;;;18.90;46.30;;;;;;5077551;28;20038;-78
2023/04/13 08:36:36;;;;;;;6.30;4.88;;;19.00;46.30;;;;;;5063890;28;20025;-75
2023/04/13 08:39:08;;;;;;;8.13;5.15;;;19.10;44.40;;;;;;5059911;28;20032;-75
2023/04/13 08:41:37;;;;;;;5.57;4.97;;;19.10;44.10;;;;;;5063875;28;20048;-76
2023/04/13 08:44:05;;;;;;;8.63;5.40;;;19.20;44.10;;;;;;5075755;28;20097;-75
2023/04/13 08:46:36;;;;;;;6.57;4.60;;;19.20;42.30;;;;;;5075104;28;20047;-74
2023/04/13 08:49:03;;;;;;;5.68;4.20;;;19.20;41.40;;;;;;5058486;28;20059;-75
2023/04/13 08:51:43;;;;;;;6.18;4.00;;;19.20;40.90;;;;;;5057163;28;20043;-75
2023/04/13 08:54:11;;;;;;;8.68;3.80;;;19.20;40.50;;;;;;5076621;28;20029;-76
2023/04/13 08:56:40;;;;;;;6.13;3.42;;;19.20;40.10;;;;;;5076377;28;20521;-75
2023/04/13 08:59:08;;;;;;;6.15;3.72;;;19.20;40.20;;;;;;5063570;28;20514;-75
2023/04/13 09:01:37;;;;;;;7.88;4.13;;;19.20;40.10;;;;;;5075249;28;20036;-76
2023/04/13 09:04:11;;;;;;;5.78;3.85;;;19.20;40.00;;;;;;5075641;28;20066;-76
2023/04/13 09:06:42;;;;;;;4.57;3.20;;;19.20;41.40;;;;;;5080193;28;20025;-76
2023/04/13 09:09:15;;;;;;;4.00;2.90;;;19.10;39.90;;;;;;5077042;28;20040;-75
2023/04/13 09:11:44;;;;;;;3.75;3.30;;;19.20;40.00;;;;;;5074841;28;20089;-74
2023/04/13 09:14:10;;;;;;;5.35;3.00;;;19.20;41.40;;;;;;5076040;28;20572;-75
2023/04/13 09:16:41;;;;;;;5.30;3.15;;;19.30;41.00;;;;;;5077162;28;20036;-76
2023/04/13 09:19:13;;;;;;;3.85;2.85;;;19.20;41.40;;;;;;5075130;28;20040;-76
2023/04/13 09:21:43;;;;;;;3.95;3.17;;;19.30;41.90;;;;;;5078596;28;20894;-74
2023/04/13 09:24:10;;;;;;;5.47;2.95;;;19.30;42.20;;;;;;5059387;28;20039;-76
2023/04/13 09:26:47;;;;;;;3.67;2.90;;;19.30;42.20;;;;;;5075744;28;20078;-74
2023/04/13 09:29:18;;;;;;;5.93;3.17;;;19.40;42.00;;;;;;5063673;28;20407;-75
2023/04/13 09:31:45;;;;;;;3.58;3.13;;;19.40;41.80;;;;;;5076053;28;20028;-75
2023/04/13 09:34:11;;;;;;;4.50;3.00;;;19.50;42.20;;;;;;5077360;28;20518;-74
2023/04/13 09:36:38;;;;;;;4.05;3.03;;;19.50;41.90;;;;;;5077369;28;20089;-75
2023/04/13 09:39:04;;;;;;;4.05;2.80;;;19.50;41.10;;;;;;5076008;28;20123;-74
2023/04/13 09:41:35;;;;;;;5.13;3.28;;;19.50;40.20;;;;;;5075506;28;20104;-77
2023/04/13 09:44:13;;;;;;;3.80;2.90;;;19.50;39.40;;;;;;5075055;28;20127;-76
2023/04/13 09:46:39;;;;;;;2.90;2.60;;;19.50;38.80;;;;;;5075915;28;20047;-74
2023/04/13 09:49:06;;;;;;;3.92;3.10;;;19.50;39.50;;;;;;5089797;28;20052;-76
2023/04/13 09:51:39;;;;;;;7.50;3.40;;;19.50;40.30;;;;;;5094851;28;20040;-76
2023/04/13 09:54:06;;;;;;;3.88;2.90;;;19.50;39.90;;;;;;5078812;28;20092;-75
2023/04/13 09:56:46;;;;;;;4.95;2.88;;;19.50;39.40;;;;;;5077626;28;20039;-76
2023/04/13 09:59:13;;;;;;;10.98;3.22;;;19.50;39.40;;;;;;5059803;28;20081;-76
2023/04/13 10:01:40;;;;;;;6.15;3.33;;;19.40;39.50;;;;;;5095663;28;20118;-75
2023/04/13 10:04:07;;;;;;;4.80;3.00;;;19.50;39.00;;;;;;5048623;28;20519;-76
2023/04/13 10:06:42;;;;;;;5.80;3.10;;;19.40;38.40;;;;;;5053305;28;20046;-76
2023/04/13 10:09:09;;;;;;;3.75;2.92;;;19.40;38.60;;;;;;5077534;28;20059;-75
2023/04/13 10:11:53;;;;;;;7.53;3.88;;;19.40;38.50;;;;;;5078166;28;20418;-75
2023/04/13 10:14:23;;;;;;;5.75;3.15;;;19.30;38.00;;;;;;5048076;28;20807;-75
2023/04/13 10:17:20;;;;;;;2.70;2.47;;;19.40;37.90;;;;;;5096037;28;20528;-75
2023/04/13 10:19:48;;;;;;;5.32;2.90;;;19.30;37.50;;;;;;5050796;28;20028;-76
2023/04/13 10:22:16;;;;;;;7.30;3.83;;;19.30;37.30;;;;;;5077863;28;20031;-76
2023/04/13 10:24:43;;;;;;;4.90;3.45;;;19.30;37.60;;;;;;5096567;28;20066;-76
2023/04/13 10:27:13;;;;;;;4.45;2.80;;;19.30;37.70;;;;;;5097498;28;20131;-76
2023/04/13 10:29:39;;;;;;;5.72;3.13;;;19.20;37.00;;;;;;5060796;28;20028;-75
2023/04/13 10:32:06;;;;;;;4.93;3.30;;;19.20;37.20;;;;;;5078293;28;20036;-75
2023/04/13 10:34:37;;;;;;;3.33;2.80;;;19.20;38.50;;;;;;5059949;28;20112;-75
2023/04/13 10:37:05;;;;;;;4.53;2.72;;;19.30;38.40;;;;;;5076483;28;20044;-76
2023/04/13 10:39:33;;;;;;;4.07;2.85;;;19.30;38.90;;;;;;5077375;28;20126;-76
2023/04/13 10:42:07;;;;;;;4.82;3.10;;;19.30;38.10;;;;;;5096004;28;20040;-75
2023/04/13 10:44:49;;;;;;;3.33;3.03;;;19.30;38.50;;;;;;5094589;28;20039;-76
2023/04/13 10:47:19;;;;;;;3.30;3.00;;;19.20;38.20;;;;;;5066526;28;20549;-76
2023/04/13 10:49:46;;;;;;;4.32;3.03;;;19.30;38.80;;;;;;5074138;28;20044;-75
2023/04/13 10:52:14;;;;;;;4.47;3.33;;;19.30;38.60;;;;;;5074410;28;20037;-76
2023/04/13 10:54:41;;;;;;;5.25;3.22;;;19.30;37.70;;;;;;5057182;28;20047;-75
2023/04/13 10:57:09;;;;;;;4.35;2.83;;;19.30;37.80;;;;;;5074143;28;20047;-76
2023/04/13 10:59:54;;;;;;;3.47;2.50;;;19.30;37.50;;;;;;5072820;28;20569;-75
2023/04/13 11:02:20;;;;;;;3.15;2.70;;;19.30;37.60;;;;;;5074689;28;20043;-75
2023/04/13 11:04:47;;;;;;;5.53;2.97;;;19.30;37.80;;;;;;5061818;28;20028;-75
2023/04/13 11:07:15;;;;;;;3.35;2.70;;;19.30;37.50;;;;;;5073486;28;20032;-76
2023/04/13 11:09:44;;;;;;;4.93;2.80;;;19.30;37.50;;;;;;5074444;28;20067;-76
2023/04/13 11:12:13;;;;;;;4.15;2.83;;;19.30;37.50;;;;;;5074895;28;20028;-75
2023/04/13 11:14:43;;;;;;;4.80;3.10;;;19.30;37.50;;;;;;5061316;28;20028;-75
2023/04/13 11:17:15;;;;;;;3.13;2.85;;;19.40;37.80;;;;;;5073449;28;20039;-76
2023/04/13 11:19:52;;;;;;;4.32;2.80;;;19.40;38.40;;;;;;5074668;28;20078;-75
2023/04/13 11:22:24;;;;;;;3.83;2.78;;;19.30;38.40;;;;;;5075118;28;20781;-76
2023/04/13 11:24:51;;;;;;;3.35;2.70;;;19.30;38.40;;;;;;5061786;28;20025;-74
2023/04/13 11:27:22;;;;;;;3.50;2.72;;;19.40;38.80;;;;;;5075507;28;20058;-76
2023/04/13 11:30:05;;;;;;;3.70;2.80;;;19.50;39.10;;;;;;5075036;28;20057;-76
2023/04/13 11:32:41;;;;;;;5.22;3.17;;;19.50;38.90;;;;;;5074463;28;20078;-77
2023/04/13 11:35:14;;;;;;;4.55;3.28;;;19.50;38.40;;;;;;5057387;28;20036;-77
2023/04/13 11:37:42;;;;;;;4.90;3.20;;;19.50;38.00;;;;;;5075336;28;20041;-76
2023/04/13 11:40:20;;;;;;;7.07;3.17;;;19.50;37.60;;;;;;5074478;28;20402;-77
2023/04/13 11:42:52;;;;;;;4.75;2.85;;;19.50;37.10;;;;;;5074659;28;20113;-80
2023/04/13 11:45:21;;;;;;;3.15;2.60;;;19.50;36.50;;;;;;5075113;28;20297;-79
2023/04/13 11:47:48;;;;;;;3.20;2.90;;;19.50;36.60;;;;;;5075720;28;20048;-79
2023/04/13 11:50:16;;;;;;;4.25;2.80;;;19.50;36.60;;;;;;5094672;28;20067;-79
2023/04/13 11:52:45;;;;;;;3.65;2.92;;;19.50;36.40;;;;;;5076353;28;20127;-80
2023/04/13 11:55:12;;;;;;;4.95;2.85;;;19.40;36.10;;;;;;5076961;28;20534;-79
2023/04/13 11:57:41;;;;;;;6.53;2.90;;;19.40;36.40;;;;;;5094841;28;20035;-80
2023/04/13 12:00:23;;;;;;;3.50;2.50;;;19.40;36.40;;;;;;5083707;28;20088;-80
2023/04/13 12:02:58;;;;;;;3.80;2.75;;;19.40;36.50;;;;;;5073654;28;20055;-77
2023/04/13 12:05:29;;;;;;;4.35;3.15;;;19.40;36.70;;;;;;5114863;28;20036;-78
2023/04/13 12:07:56;;;;;;;4.10;2.78;;;19.40;36.60;;;;;;5104325;28;20043;-79
2023/04/13 12:10:30;;;;;;;6.55;3.00;;;19.40;36.80;;;;;;5094505;28;20063;-79
2023/04/13 12:13:08;;;;;;;7.25;3.30;;;19.40;36.70;;;;;;5070832;28;20043;-78
2023/04/13 12:15:39;;;;;;;5.40;2.80;;;19.40;36.60;;;;;;5097175;28;20027;-79
2023/04/13 12:18:05;;;;;;;5.82;3.38;;;19.30;36.40;;;;;;5048661;28;20123;-78
2023/04/13 12:20:37;;;;;;;3.10;2.67;;;19.30;36.80;;;;;;5074108;28;20060;-83
2023/04/13 12:23:15;;;;;;;5.50;3.05;;;19.40;36.70;;;;;;5071842;28;20032;-80
2023/04/13 12:25:40;;;;;;;4.65;3.30;;;19.30;36.30;;;;;;5079960;28;20089;-80
2023/04/13 12:28:06;;;;;;;5.00;3.38;;;19.30;36.10;;;;;;5068338;28;20040;-79
2023/04/13 12:30:33;;;;;;;5.78;2.85;;;19.30;36.60;;;;;;5089722;28;20087;-79
2023/04/13 12:32:59;;;;;;;4.10;3.00;;;19.30;36.20;;;;;;5077160;28;20518;-79
2023/04/13 12:35:25;;;;;;;4.40;3.10;;;19.20;36.00;;;;;;5096703;28;20039;-78
2023/04/13 12:37:51;;;;;;;4.72;3.22;;;19.20;36.00;;;;;;5086363;28;20028;-77
2023/04/13 12:40:18;;;;;;;4.50;3.20;;;19.20;35.90;;;;;;5093788;28;20028;-76
2023/04/13 12:42:47;;;;;;;5.20;3.42;;;19.20;36.30;;;;;;5083436;28;20043;-76
2023/04/13 12:45:15;;;;;;;5.47;3.63;;;19.10;36.60;;;;;;5094726;28;20445;-78
2023/04/13 12:47:41;;;;;;;5.20;3.30;;;19.20;36.90;;;;;;5076752;28;20044;-75